sensor_id;sensor_type;location;lat;lon;timestamp;temperature;humidity
40828;DHT22;26549;50.918;5.338;2023-02-16T00:00:18;7.50;99.90
40828;DHT22;26549;50.918;5.338;2023-02-16T00:02:44;7.50;99.90
40828;DHT22;26549;50.918;5.338;2023-02-16T00:05:32;7.40;99.90
40828;DHT22;26549;50.918;5.338;2023-02-16T00:07:59;7.50;99.90
40828;DHT22;26549;50.918;5.338;2023-02-16T00:10:29;7.60;99.90
40828;DHT22;26549;50.918;5.338;2023-02-16T00:12:56;7.60;99.90
40828;DHT22;26549;50.918;5.338;2023-02-16T00:15:40;7.60;99.90
40828;DHT22;26549;50.918;5.338;2023-02-16T00:18:17;7.50;99.90
40828;DHT22;26549;50.918;5.338;2023-02-16T00:20:44;7.50;99.90
40828;DHT22;26549;50.918;5.338;2023-02-16T00:23:10;7.50;99.90
40828;DHT22;26549;50.918;5.338;2023-02-16T00:25:36;7.50;99.90
40828;DHT22;26549;50.918;5.338;2023-02-16T00:28:14;7.50;99.90
40828;DHT22;26549;50.918;5.338;2023-02-16T00:30:40;7.60;99.90
40828;DHT22;26549;50.918;5.338;2023-02-16T00:33:18;7.60;99.90
40828;DHT22;26549;50.918;5.338;2023-02-16T00:35:44;7.50;99.90
40828;DHT22;26549;50.918;5.338;2023-02-16T00:38:11;7.50;99.90
40828;DHT22;26549;50.918;5.338;2023-02-16T00:40:37;7.50;99.90
40828;DHT22;26549;50.918;5.338;2023-02-16T00:43:03;7.50;99.90
40828;DHT22;26549;50.918;5.338;2023-02-16T00:45:33;7.50;99.90
40828;DHT22;26549;50.918;5.338;2023-02-16T00:48:00;7.50;99.90
40828;DHT22;26549;50.918;5.338;2023-02-16T00:50:28;7.40;99.90
40828;DHT22;26549;50.918;5.338;2023-02-16T00:52:54;7.40;99.90
40828;DHT22;26549;50.918;5.338;2023-02-16T00:55:25;7.50;99.90
40828;DHT22;26549;50.918;5.338;2023-02-16T00:57:56;7.50;99.90
40828;DHT22;26549;50.918;5.338;2023-02-16T01:00:40;7.40;99.90
40828;DHT22;26549;50.918;5.338;2023-02-16T01:03:10;7.40;99.90
40828;DHT22;26549;50.918;5.338;2023-02-16T01:05:37;7.40;99.90
40828;DHT22;26549;50.918;5.338;2023-02-16T01:08:10;7.40;99.90
40828;DHT22;26549;50.918;5.338;2023-02-16T01:10:55;7.40;99.90
40828;DHT22;26549;50.918;5.338;2023-02-16T01:13:40;7.40;99.90
40828;DHT22;26549;50.918;5.338;2023-02-16T01:16:17;7.30;99.90
40828;DHT22;26549;50.918;5.338;2023-02-16T01:18:44;7.30;99.90
40828;DHT22;26549;50.918;5.338;2023-02-16T01:21:09;7.30;99.90
40828;DHT22;26549;50.918;5.338;2023-02-16T01:23:37;7.30;99.90
40828;DHT22;26549;50.918;5.338;2023-02-16T01:26:03;7.30;99.90
40828;DHT22;26549;50.918;5.338;2023-02-16T01:28:32;7.30;99.90
40828;DHT22;26549;50.918;5.338;2023-02-16T01:30:58;7.40;99.90
40828;DHT22;26549;50.918;5.338;2023-02-16T01:33:24;7.40;99.90
40828;DHT22;26549;50.918;5.338;2023-02-16T01:35:50;7.40;99.90
40828;DHT22;26549;50.918;5.338;2023-02-16T01:38:21;7.30;99.90
40828;DHT22;26549;50.918;5.338;2023-02-16T01:41:03;7.30;99.90
40828;DHT22;26549;50.918;5.338;2023-02-16T01:43:49;7.30;99.90
40828;DHT22;26549;50.918;5.338;2023-02-16T01:49:29;7.20;99.90
40828;DHT22;26549;50.918;5.338;2023-02-16T01:52:04;7.20;99.90
40828;DHT22;26549;50.918;5.338;2023-02-16T01:54:42;7.20;99.90
40828;DHT22;26549;50.918;5.338;2023-02-16T01:57:21;7.20;99.90
40828;DHT22;26549;50.918;5.338;2023-02-16T02:02:23;7.10;99.90
40828;DHT22;26549;50.918;5.338;2023-02-16T02:04:53;7.20;99.90
40828;DHT22;26549;50.918;5.338;2023-02-16T02:07:51;7.20;99.90
40828;DHT22;26549;50.918;5.338;2023-02-16T02:10:22;7.20;99.90
40828;DHT22;26549;50.918;5.338;2023-02-16T02:15:29;7.40;99.90
40828;DHT22;26549;50.918;5.338;2023-02-16T02:17:55;7.40;99.90
40828;DHT22;26549;50.918;5.338;2023-02-16T02:39:57;7.50;99.90
40828;DHT22;26549;50.918;5.338;2023-02-16T02:43:30;7.50;99.90
40828;DHT22;26549;50.918;5.338;2023-02-16T02:45:33;7.50;99.90
40828;DHT22;26549;50.918;5.338;2023-02-16T02:48:00;7.50;99.90
40828;DHT22;26549;50.918;5.338;2023-02-16T02:50:46;7.50;99.90
40828;DHT22;26549;50.918;5.338;2023-02-16T02:53:32;7.50;99.90
40828;DHT22;26549;50.918;5.338;2023-02-16T02:56:00;7.40;99.90
40828;DHT22;26549;50.918;5.338;2023-02-16T02:58:49;7.40;99.90
40828;DHT22;26549;50.918;5.338;2023-02-16T03:01:39;7.40;99.90
40828;DHT22;26549;50.918;5.338;2023-02-16T03:04:08;7.40;99.90
40828;DHT22;26549;50.918;5.338;2023-02-16T03:06:40;7.30;99.90
40828;DHT22;26549;50.918;5.338;2023-02-16T03:09:12;7.30;99.90
40828;DHT22;26549;50.918;5.338;2023-02-16T03:11:39;7.30;99.90
40828;DHT22;26549;50.918;5.338;2023-02-16T03:14:31;7.30;99.90
40828;DHT22;26549;50.918;5.338;2023-02-16T03:17:01;7.40;99.90
40828;DHT22;26549;50.918;5.338;2023-02-16T03:19:48;7.40;99.90
40828;DHT22;26549;50.918;5.338;2023-02-16T03:22:33;7.40;99.90
40828;DHT22;26549;50.918;5.338;2023-02-16T03:25:19;7.40;99.90
40828;DHT22;26549;50.918;5.338;2023-02-16T03:28:06;7.30;99.90
40828;DHT22;26549;50.918;5.338;2023-02-16T03:30:51;7.30;99.90
40828;DHT22;26549;50.918;5.338;2023-02-16T03:33:19;7.40;99.90
40828;DHT22;26549;50.918;5.338;2023-02-16T03:35:45;7.30;99.90
40828;DHT22;26549;50.918;5.338;2023-02-16T03:38:12;7.30;99.90
40828;DHT22;26549;50.918;5.338;2023-02-16T03:40:39;7.30;99.90
40828;DHT22;26549;50.918;5.338;2023-02-16T03:43:07;7.20;99.90
40828;DHT22;26549;50.918;5.338;2023-02-16T03:45:36;7.20;99.90
40828;DHT22;26549;50.918;5.338;2023-02-16T03:48:03;7.20;99.90
40828;DHT22;26549;50.918;5.338;2023-02-16T03:50:29;7.20;99.90
40828;DHT22;26549;50.918;5.338;2023-02-16T03:52:56;7.20;99.90
40828;DHT22;26549;50.918;5.338;2023-02-16T03:55:40;7.20;99.90
40828;DHT22;26549;50.918;5.338;2023-02-16T03:58:07;7.20;99.90
40828;DHT22;26549;50.918;5.338;2023-02-16T04:00:35;7.20;99.90
40828;DHT22;26549;50.918;5.338;2023-02-16T04:03:02;7.20;99.90
40828;DHT22;26549;50.918;5.338;2023-02-16T04:05:28;7.30;99.90
40828;DHT22;26549;50.918;5.338;2023-02-16T04:07:54;7.20;99.90
40828;DHT22;26549;50.918;5.338;2023-02-16T04:10:20;7.20;99.90
40828;DHT22;26549;50.918;5.338;2023-02-16T04:12:46;7.20;99.90
40828;DHT22;26549;50.918;5.338;2023-02-16T04:15:15;7.30;99.90
40828;DHT22;26549;50.918;5.338;2023-02-16T04:17:41;7.20;99.90
40828;DHT22;26549;50.918;5.338;2023-02-16T04:20:11;7.20;99.90
40828;DHT22;26549;50.918;5.338;2023-02-16T04:22:38;7.20;99.90
40828;DHT22;26549;50.918;5.338;2023-02-16T04:25:04;7.10;99.90
40828;DHT22;26549;50.918;5.338;2023-02-16T04:27:30;7.10;99.90
40828;DHT22;26549;50.918;5.338;2023-02-16T04:29:56;7.20;99.90
40828;DHT22;26549;50.918;5.338;2023-02-16T04:32:21;7.20;99.90
40828;DHT22;26549;50.918;5.338;2023-02-16T04:34:47;7.30;99.90
40828;DHT22;26549;50.918;5.338;2023-02-16T04:37:13;7.30;99.90
40828;DHT22;26549;50.918;5.338;2023-02-16T04:39:39;7.30;99.90
40828;DHT22;26549;50.918;5.338;2023-02-16T04:42:05;7.30;99.90
40828;DHT22;26549;50.918;5.338;2023-02-16T04:44:30;7.30;99.90
40828;DHT22;26549;50.918;5.338;2023-02-16T04:46:56;7.40;99.90
40828;DHT22;26549;50.918;5.338;2023-02-16T04:49:23;7.30;99.90
40828;DHT22;26549;50.918;5.338;2023-02-16T04:51:49;7.40;99.90
40828;DHT22;26549;50.918;5.338;2023-02-16T04:54:15;7.40;99.90
40828;DHT22;26549;50.918;5.338;2023-02-16T04:56:45;7.50;99.90
40828;DHT22;26549;50.918;5.338;2023-02-16T04:59:11;7.40;99.90
40828;DHT22;26549;50.918;5.338;2023-02-16T05:01:37;7.50;99.90
40828;DHT22;26549;50.918;5.338;2023-02-16T05:04:03;7.50;99.90
40828;DHT22;26549;50.918;5.338;2023-02-16T05:06:29;7.60;99.90
40828;DHT22;26549;50.918;5.338;2023-02-16T05:08:55;7.60;99.90
40828;DHT22;26549;50.918;5.338;2023-02-16T05:11:21;7.60;99.90
40828;DHT22;26549;50.918;5.338;2023-02-16T05:14:05;7.50;99.90
40828;DHT22;26549;50.918;5.338;2023-02-16T05:16:49;7.50;99.90
40828;DHT22;26549;50.918;5.338;2023-02-16T05:19:14;7.50;99.90
40828;DHT22;26549;50.918;5.338;2023-02-16T05:21:40;7.60;99.90
40828;DHT22;26549;50.918;5.338;2023-02-16T05:24:08;7.60;99.90
40828;DHT22;26549;50.918;5.338;2023-02-16T05:26:35;7.50;99.90
40828;DHT22;26549;50.918;5.338;2023-02-16T05:29:02;7.60;99.90
40828;DHT22;26549;50.918;5.338;2023-02-16T05:31:28;7.50;99.90
40828;DHT22;26549;50.918;5.338;2023-02-16T05:33:54;7.60;99.90
40828;DHT22;26549;50.918;5.338;2023-02-16T05:36:21;7.50;99.90
40828;DHT22;26549;50.918;5.338;2023-02-16T05:38:47;7.60;99.90
40828;DHT22;26549;50.918;5.338;2023-02-16T05:41:13;7.60;99.90
40828;DHT22;26549;50.918;5.338;2023-02-16T05:43:53;7.70;99.90
40828;DHT22;26549;50.918;5.338;2023-02-16T05:46:21;7.70;99.90
40828;DHT22;26549;50.918;5.338;2023-02-16T05:48:47;7.60;99.90
40828;DHT22;26549;50.918;5.338;2023-02-16T05:51:13;7.70;99.90
40828;DHT22;26549;50.918;5.338;2023-02-16T05:53:39;7.80;99.90
40828;DHT22;26549;50.918;5.338;2023-02-16T05:56:06;7.80;99.90
40828;DHT22;26549;50.918;5.338;2023-02-16T05:58:32;7.80;99.90
40828;DHT22;26549;50.918;5.338;2023-02-16T06:00:59;7.80;99.90
40828;DHT22;26549;50.918;5.338;2023-02-16T06:03:25;7.70;99.90
40828;DHT22;26549;50.918;5.338;2023-02-16T06:05:59;7.70;99.90
40828;DHT22;26549;50.918;5.338;2023-02-16T06:08:25;7.70;99.90
40828;DHT22;26549;50.918;5.338;2023-02-16T06:10:52;7.70;99.90
40828;DHT22;26549;50.918;5.338;2023-02-16T06:13:20;7.70;99.90
40828;DHT22;26549;50.918;5.338;2023-02-16T06:15:46;7.70;99.90
40828;DHT22;26549;50.918;5.338;2023-02-16T06:18:15;7.70;99.90
40828;DHT22;26549;50.918;5.338;2023-02-16T06:20:41;7.80;99.90
40828;DHT22;26549;50.918;5.338;2023-02-16T06:23:10;8.00;99.90
40828;DHT22;26549;50.918;5.338;2023-02-16T06:25:36;8.00;99.90
40828;DHT22;26549;50.918;5.338;2023-02-16T06:28:04;7.80;99.90
40828;DHT22;26549;50.918;5.338;2023-02-16T06:30:29;7.90;99.90
40828;DHT22;26549;50.918;5.338;2023-02-16T06:32:55;7.90;99.90
40828;DHT22;26549;50.918;5.338;2023-02-16T06:35:21;7.80;99.90
40828;DHT22;26549;50.918;5.338;2023-02-16T06:37:46;7.80;99.90
40828;DHT22;26549;50.918;5.338;2023-02-16T06:40:13;7.80;99.90
40828;DHT22;26549;50.918;5.338;2023-02-16T06:42:40;7.80;99.90
40828;DHT22;26549;50.918;5.338;2023-02-16T06:45:06;8.00;99.90
40828;DHT22;26549;50.918;5.338;2023-02-16T06:47:34;8.00;99.90
40828;DHT22;26549;50.918;5.338;2023-02-16T06:49:59;8.10;99.90
40828;DHT22;26549;50.918;5.338;2023-02-16T06:52:25;8.00;99.90
40828;DHT22;26549;50.918;5.338;2023-02-16T06:54:52;8.00;99.90
40828;DHT22;26549;50.918;5.338;2023-02-16T06:57:18;8.10;99.90
40828;DHT22;26549;50.918;5.338;2023-02-16T06:59:44;8.20;99.90
40828;DHT22;26549;50.918;5.338;2023-02-16T07:02:10;8.40;99.90
40828;DHT22;26549;50.918;5.338;2023-02-16T07:04:36;8.40;99.90
40828;DHT22;26549;50.918;5.338;2023-02-16T07:07:02;8.40;99.90
40828;DHT22;26549;50.918;5.338;2023-02-16T07:09:28;8.30;99.90
40828;DHT22;26549;50.918;5.338;2023-02-16T07:11:54;8.30;99.90
40828;DHT22;26549;50.918;5.338;2023-02-16T07:14:20;8.40;99.90
40828;DHT22;26549;50.918;5.338;2023-02-16T07:16:46;8.50;99.90
40828;DHT22;26549;50.918;5.338;2023-02-16T07:19:12;8.50;99.90
40828;DHT22;26549;50.918;5.338;2023-02-16T07:21:37;8.50;99.90
40828;DHT22;26549;50.918;5.338;2023-02-16T07:24:03;8.50;99.90
40828;DHT22;26549;50.918;5.338;2023-02-16T07:26:29;8.50;99.90
40828;DHT22;26549;50.918;5.338;2023-02-16T07:28:55;8.40;99.90
40828;DHT22;26549;50.918;5.338;2023-02-16T07:31:21;8.50;99.90
40828;DHT22;26549;50.918;5.338;2023-02-16T07:33:51;8.50;99.90
40828;DHT22;26549;50.918;5.338;2023-02-16T07:36:16;8.60;99.90
40828;DHT22;26549;50.918;5.338;2023-02-16T07:38:42;8.70;99.90
40828;DHT22;26549;50.918;5.338;2023-02-16T07:41:08;8.80;99.90
40828;DHT22;26549;50.918;5.338;2023-02-16T07:43:35;8.80;99.90
40828;DHT22;26549;50.918;5.338;2023-02-16T07:46:01;8.90;99.90
40828;DHT22;26549;50.918;5.338;2023-02-16T07:48:26;8.90;99.90
40828;DHT22;26549;50.918;5.338;2023-02-16T07:50:52;8.90;99.90
40828;DHT22;26549;50.918;5.338;2023-02-16T07:53:18;8.90;99.90
40828;DHT22;26549;50.918;5.338;2023-02-16T07:55:45;8.90;99.90
40828;DHT22;26549;50.918;5.338;2023-02-16T07:58:12;9.00;99.90
40828;DHT22;26549;50.918;5.338;2023-02-16T08:01:04;9.10;99.90
40828;DHT22;26549;50.918;5.338;2023-02-16T08:03:30;9.10;99.90
40828;DHT22;26549;50.918;5.338;2023-02-16T08:05:59;9.10;99.90
40828;DHT22;26549;50.918;5.338;2023-02-16T08:08:26;9.20;99.90
40828;DHT22;26549;50.918;5.338;2023-02-16T08:10:51;9.10;99.90
40828;DHT22;26549;50.918;5.338;2023-02-16T08:13:17;9.10;99.90
40828;DHT22;26549;50.918;5.338;2023-02-16T08:15:44;9.00;99.90
40828;DHT22;26549;50.918;5.338;2023-02-16T08:18:11;9.10;99.90
40828;DHT22;26549;50.918;5.338;2023-02-16T08:20:37;9.20;99.90
40828;DHT22;26549;50.918;5.338;2023-02-16T08:23:03;9.10;99.90
40828;DHT22;26549;50.918;5.338;2023-02-16T08:25:34;9.20;99.90
40828;DHT22;26549;50.918;5.338;2023-02-16T08:28:01;9.20;99.90
40828;DHT22;26549;50.918;5.338;2023-02-16T08:30:27;9.20;99.90
40828;DHT22;26549;50.918;5.338;2023-02-16T08:32:53;9.20;99.90
40828;DHT22;26549;50.918;5.338;2023-02-16T08:35:21;9.20;99.90
40828;DHT22;26549;50.918;5.338;2023-02-16T08:37:47;9.30;99.90
40828;DHT22;26549;50.918;5.338;2023-02-16T08:40:12;9.40;99.90
40828;DHT22;26549;50.918;5.338;2023-02-16T08:42:38;9.50;99.90
40828;DHT22;26549;50.918;5.338;2023-02-16T08:45:05;9.50;99.90
40828;DHT22;26549;50.918;5.338;2023-02-16T08:47:32;9.50;99.90
40828;DHT22;26549;50.918;5.338;2023-02-16T08:50:00;9.50;99.90
40828;DHT22;26549;50.918;5.338;2023-02-16T08:52:27;9.60;99.90
40828;DHT22;26549;50.918;5.338;2023-02-16T08:54:53;9.70;99.90
40828;DHT22;26549;50.918;5.338;2023-02-16T08:57:19;9.80;99.90
40828;DHT22;26549;50.918;5.338;2023-02-16T08:59:45;9.80;99.90
40828;DHT22;26549;50.918;5.338;2023-02-16T09:02:30;9.90;99.90
40828;DHT22;26549;50.918;5.338;2023-02-16T09:04:56;9.80;99.90
40828;DHT22;26549;50.918;5.338;2023-02-16T09:07:22;9.80;99.90
40828;DHT22;26549;50.918;5.338;2023-02-16T09:09:48;9.90;99.90
40828;DHT22;26549;50.918;5.338;2023-02-16T09:12:13;10.10;99.90
40828;DHT22;26549;50.918;5.338;2023-02-16T09:14:40;10.10;99.90
40828;DHT22;26549;50.918;5.338;2023-02-16T09:17:06;10.10;99.90
40828;DHT22;26549;50.918;5.338;2023-02-16T09:19:32;10.00;99.90
40828;DHT22;26549;50.918;5.338;2023-02-16T09:21:57;10.00;99.90
40828;DHT22;26549;50.918;5.338;2023-02-16T09:24:23;10.00;99.90
40828;DHT22;26549;50.918;5.338;2023-02-16T09:26:49;10.10;99.90
40828;DHT22;26549;50.918;5.338;2023-02-16T09:29:16;10.10;99.90
40828;DHT22;26549;50.918;5.338;2023-02-16T09:31:42;10.10;99.90
40828;DHT22;26549;50.918;5.338;2023-02-16T09:34:15;10.10;99.90
40828;DHT22;26549;50.918;5.338;2023-02-16T09:36:41;10.20;99.90
40828;DHT22;26549;50.918;5.338;2023-02-16T09:39:07;10.10;99.90
40828;DHT22;26549;50.918;5.338;2023-02-16T09:45:06;10.10;99.90
40828;DHT22;26549;50.918;5.338;2023-02-16T09:47:38;10.00;99.90
40828;DHT22;26549;50.918;5.338;2023-02-16T09:50:26;10.20;99.90
40828;DHT22;26549;50.918;5.338;2023-02-16T09:53:00;10.30;99.90
40828;DHT22;26549;50.918;5.338;2023-02-16T09:58:19;10.30;99.90
40828;DHT22;26549;50.918;5.338;2023-02-16T10:03:59;10.30;99.90
40828;DHT22;26549;50.918;5.338;2023-02-16T10:09:13;10.20;99.90
40828;DHT22;26549;50.918;5.338;2023-02-16T10:25:39;10.40;99.90
40828;DHT22;26549;50.918;5.338;2023-02-16T10:28:19;10.30;99.90
40828;DHT22;26549;50.918;5.338;2023-02-16T10:31:02;10.40;99.90
40828;DHT22;26549;50.918;5.338;2023-02-16T10:33:44;10.50;99.90
40828;DHT22;26549;50.918;5.338;2023-02-16T10:36:38;10.60;99.90
40828;DHT22;26549;50.918;5.338;2023-02-16T10:39:23;10.70;99.90
40828;DHT22;26549;50.918;5.338;2023-02-16T10:42:20;10.60;99.90
40828;DHT22;26549;50.918;5.338;2023-02-16T10:47:41;10.60;99.90
40828;DHT22;26549;50.918;5.338;2023-02-16T10:52:57;10.50;99.90
40828;DHT22;26549;50.918;5.338;2023-02-16T10:55:24;10.50;99.90
40828;DHT22;26549;50.918;5.338;2023-02-16T10:57:56;10.40;99.90
40828;DHT22;26549;50.918;5.338;2023-02-16T11:00:32;10.40;99.90
40828;DHT22;26549;50.918;5.338;2023-02-16T11:03:05;10.50;99.90
40828;DHT22;26549;50.918;5.338;2023-02-16T11:05:37;10.50;99.90
40828;DHT22;26549;50.918;5.338;2023-02-16T11:08:06;10.50;99.90
40828;DHT22;26549;50.918;5.338;2023-02-16T11:10:51;10.50;99.90
40828;DHT22;26549;50.918;5.338;2023-02-16T11:15:52;10.60;99.90
40828;DHT22;26549;50.918;5.338;2023-02-16T11:18:29;10.70;99.90
40828;DHT22;26549;50.918;5.338;2023-02-16T11:20:57;10.70;99.90
40828;DHT22;26549;50.918;5.338;2023-02-16T11:23:29;10.80;99.90
40828;DHT22;26549;50.918;5.338;2023-02-16T11:28:44;10.90;99.90
40828;DHT22;26549;50.918;5.338;2023-02-16T11:34:06;11.10;99.90
40828;DHT22;26549;50.918;5.338;2023-02-16T11:41:45;11.10;99.90
40828;DHT22;26549;50.918;5.338;2023-02-16T11:44:32;11.20;99.90
40828;DHT22;26549;50.918;5.338;2023-02-16T11:47:01;11.10;99.90
40828;DHT22;26549;50.918;5.338;2023-02-16T11:49:35;11.10;99.90
40828;DHT22;26549;50.918;5.338;2023-02-16T11:52:25;11.20;99.90
40828;DHT22;26549;50.918;5.338;2023-02-16T11:54:56;11.30;99.90
40828;DHT22;26549;50.918;5.338;2023-02-16T11:57:30;11.40;99.90
40828;DHT22;26549;50.918;5.338;2023-02-16T11:59:57;11.50;99.90
40828;DHT22;26549;50.918;5.338;2023-02-16T12:21:42;12.30;99.90
40828;DHT22;26549;50.918;5.338;2023-02-16T12:27:06;12.30;99.90
40828;DHT22;26549;50.918;5.338;2023-02-16T12:29:42;12.50;99.90
40828;DHT22;26549;50.918;5.338;2023-02-16T12:32:27;12.40;99.90
40828;DHT22;26549;50.918;5.338;2023-02-16T12:43:00;12.40;99.90
40828;DHT22;26549;50.918;5.338;2023-02-16T12:45:32;12.40;99.90
40828;DHT22;26549;50.918;5.338;2023-02-16T12:50:58;12.30;99.90
40828;DHT22;26549;50.918;5.338;2023-02-16T12:53:32;12.40;99.90
40828;DHT22;26549;50.918;5.338;2023-02-16T12:56:08;12.50;99.90
40828;DHT22;26549;50.918;5.338;2023-02-16T12:58:41;12.40;99.90
40828;DHT22;26549;50.918;5.338;2023-02-16T13:01:24;12.40;99.90
40828;DHT22;26549;50.918;5.338;2023-02-16T13:03:58;12.50;99.90
40828;DHT22;26549;50.918;5.338;2023-02-16T13:06:45;12.50;99.90
40828;DHT22;26549;50.918;5.338;2023-02-16T13:09:43;12.50;99.90
40828;DHT22;26549;50.918;5.338;2023-02-16T13:12:33;12.60;99.90
40828;DHT22;26549;50.918;5.338;2023-02-16T13:15:10;12.70;99.90
40828;DHT22;26549;50.918;5.338;2023-02-16T13:17:59;12.80;99.90
40828;DHT22;26549;50.918;5.338;2023-02-16T13:20:26;12.90;99.90
40828;DHT22;26549;50.918;5.338;2023-02-16T13:23:27;12.80;99.90
40828;DHT22;26549;50.918;5.338;2023-02-16T13:26:08;12.80;99.90
40828;DHT22;26549;50.918;5.338;2023-02-16T13:29:23;12.70;99.90
40828;DHT22;26549;50.918;5.338;2023-02-16T13:34:39;12.80;99.90
40828;DHT22;26549;50.918;5.338;2023-02-16T13:45:39;13.00;99.90
40828;DHT22;26549;50.918;5.338;2023-02-16T13:50:57;13.00;99.90
40828;DHT22;26549;50.918;5.338;2023-02-16T13:53:24;13.10;99.90
40828;DHT22;26549;50.918;5.338;2023-02-16T13:56:13;13.10;99.90
40828;DHT22;26549;50.918;5.338;2023-02-16T13:58:41;13.20;99.90
40828;DHT22;26549;50.918;5.338;2023-02-16T14:01:33;13.30;99.90
40828;DHT22;26549;50.918;5.338;2023-02-16T14:04:01;13.20;99.90
40828;DHT22;26549;50.918;5.338;2023-02-16T14:06:37;13.20;99.90
40828;DHT22;26549;50.918;5.338;2023-02-16T14:12:01;13.20;99.90
40828;DHT22;26549;50.918;5.338;2023-02-16T14:15:00;13.30;99.90
40828;DHT22;26549;50.918;5.338;2023-02-16T14:17:29;13.40;99.90
40828;DHT22;26549;50.918;5.338;2023-02-16T14:22:51;13.40;99.90
40828;DHT22;26549;50.918;5.338;2023-02-16T14:28:04;13.30;99.90
40828;DHT22;26549;50.918;5.338;2023-02-16T14:30:56;13.50;99.90
40828;DHT22;26549;50.918;5.338;2023-02-16T14:36:16;13.50;99.90
40828;DHT22;26549;50.918;5.338;2023-02-16T14:38:46;13.40;99.90
40828;DHT22;26549;50.918;5.338;2023-02-16T14:43:49;13.70;99.90
40828;DHT22;26549;50.918;5.338;2023-02-16T14:49:26;13.80;99.90
40828;DHT22;26549;50.918;5.338;2023-02-16T15:00:39;13.70;99.90
40828;DHT22;26549;50.918;5.338;2023-02-16T15:03:23;13.90;99.90
40828;DHT22;26549;50.918;5.338;2023-02-16T15:05:54;13.80;99.90
40828;DHT22;26549;50.918;5.338;2023-02-16T15:08:26;13.80;99.90
40828;DHT22;26549;50.918;5.338;2023-02-16T15:11:00;13.80;99.90
40828;DHT22;26549;50.918;5.338;2023-02-16T15:13:32;13.90;99.90
40828;DHT22;26549;50.918;5.338;2023-02-16T15:16:00;13.80;99.90
40828;DHT22;26549;50.918;5.338;2023-02-16T15:18:38;13.80;99.90
40828;DHT22;26549;50.918;5.338;2023-02-16T15:21:18;13.80;99.90
40828;DHT22;26549;50.918;5.338;2023-02-16T15:23:53;13.80;99.90
40828;DHT22;26549;50.918;5.338;2023-02-16T15:26:24;13.80;99.90
40828;DHT22;26549;50.918;5.338;2023-02-16T15:28:53;13.80;99.90
40828;DHT22;26549;50.918;5.338;2023-02-16T15:31:19;13.80;99.90
40828;DHT22;26549;50.918;5.338;2023-02-16T15:34:05;13.80;99.90
40828;DHT22;26549;50.918;5.338;2023-02-16T15:36:37;13.70;99.90
40828;DHT22;26549;50.918;5.338;2023-02-16T15:39:11;13.70;99.90
40828;DHT22;26549;50.918;5.338;2023-02-16T15:41:42;13.60;99.90
40828;DHT22;26549;50.918;5.338;2023-02-16T15:44:28;13.50;99.90
40828;DHT22;26549;50.918;5.338;2023-02-16T15:47:07;13.50;99.90
40828;DHT22;26549;50.918;5.338;2023-02-16T15:49:34;13.50;99.90
40828;DHT22;26549;50.918;5.338;2023-02-16T15:52:12;13.50;99.90
40828;DHT22;26549;50.918;5.338;2023-02-16T15:54:40;13.50;99.90
40828;DHT22;26549;50.918;5.338;2023-02-16T15:57:29;13.50;99.90
40828;DHT22;26549;50.918;5.338;2023-02-16T16:00:01;13.50;99.90
40828;DHT22;26549;50.918;5.338;2023-02-16T16:02:33;13.40;99.90
40828;DHT22;26549;50.918;5.338;2023-02-16T16:05:02;13.50;99.90
40828;DHT22;26549;50.918;5.338;2023-02-16T16:07:34;13.40;99.90
40828;DHT22;26549;50.918;5.338;2023-02-16T16:10:02;13.40;99.90
40828;DHT22;26549;50.918;5.338;2023-02-16T16:12:28;13.30;99.90
40828;DHT22;26549;50.918;5.338;2023-02-16T16:14:57;13.30;99.90
40828;DHT22;26549;50.918;5.338;2023-02-16T16:17:30;13.30;99.90
40828;DHT22;26549;50.918;5.338;2023-02-16T16:20:36;13.30;99.90
40828;DHT22;26549;50.918;5.338;2023-02-16T16:23:24;13.30;99.90
40828;DHT22;26549;50.918;5.338;2023-02-16T16:25:51;13.40;99.90
40828;DHT22;26549;50.918;5.338;2023-02-16T16:31:12;13.40;99.90
40828;DHT22;26549;50.918;5.338;2023-02-16T16:36:20;13.30;99.90
40828;DHT22;26549;50.918;5.338;2023-02-16T16:41:35;13.30;99.90
40828;DHT22;26549;50.918;5.338;2023-02-16T16:44:01;13.40;99.90
40828;DHT22;26549;50.918;5.338;2023-02-16T16:46:28;13.40;99.90
40828;DHT22;26549;50.918;5.338;2023-02-16T16:49:00;13.40;99.90
40828;DHT22;26549;50.918;5.338;2023-02-16T16:51:42;13.30;99.90
40828;DHT22;26549;50.918;5.338;2023-02-16T16:54:29;13.20;99.90
40828;DHT22;26549;50.918;5.338;2023-02-16T16:56:56;13.20;99.90
40828;DHT22;26549;50.918;5.338;2023-02-16T16:59:22;13.10;99.90
40828;DHT22;26549;50.918;5.338;2023-02-16T17:01:47;13.20;99.90
40828;DHT22;26549;50.918;5.338;2023-02-16T17:04:15;13.00;99.90
40828;DHT22;26549;50.918;5.338;2023-02-16T17:06:41;12.70;99.90
40828;DHT22;26549;50.918;5.338;2023-02-16T17:09:07;12.70;99.90
40828;DHT22;26549;50.918;5.338;2023-02-16T17:11:34;12.80;99.90
40828;DHT22;26549;50.918;5.338;2023-02-16T17:14:12;12.80;99.90
40828;DHT22;26549;50.918;5.338;2023-02-16T17:16:41;12.80;99.90
40828;DHT22;26549;50.918;5.338;2023-02-16T17:19:21;12.70;99.90
40828;DHT22;26549;50.918;5.338;2023-02-16T17:21:47;12.60;99.90
40828;DHT22;26549;50.918;5.338;2023-02-16T17:24:14;12.40;99.90
40828;DHT22;26549;50.918;5.338;2023-02-16T17:26:41;12.40;99.90
40828;DHT22;26549;50.918;5.338;2023-02-16T17:29:14;12.20;99.90
40828;DHT22;26549;50.918;5.338;2023-02-16T17:31:49;12.20;99.90
40828;DHT22;26549;50.918;5.338;2023-02-16T17:34:15;12.10;99.90
40828;DHT22;26549;50.918;5.338;2023-02-16T17:36:40;12.00;99.90
40828;DHT22;26549;50.918;5.338;2023-02-16T17:39:06;12.10;99.90
40828;DHT22;26549;50.918;5.338;2023-02-16T17:41:32;12.00;99.90
40828;DHT22;26549;50.918;5.338;2023-02-16T17:43:58;11.90;99.90
40828;DHT22;26549;50.918;5.338;2023-02-16T17:46:24;11.90;99.90
40828;DHT22;26549;50.918;5.338;2023-02-16T17:48:52;11.80;99.90
40828;DHT22;26549;50.918;5.338;2023-02-16T17:51:21;11.80;99.90
40828;DHT22;26549;50.918;5.338;2023-02-16T17:53:48;11.70;99.90
40828;DHT22;26549;50.918;5.338;2023-02-16T17:56:15;11.80;99.90
40828;DHT22;26549;50.918;5.338;2023-02-16T17:58:42;11.70;99.90
40828;DHT22;26549;50.918;5.338;2023-02-16T18:01:13;11.70;99.90
40828;DHT22;26549;50.918;5.338;2023-02-16T18:03:40;11.70;99.90
40828;DHT22;26549;50.918;5.338;2023-02-16T18:06:11;11.60;99.90
40828;DHT22;26549;50.918;5.338;2023-02-16T18:08:38;11.70;99.90
40828;DHT22;26549;50.918;5.338;2023-02-16T18:11:04;11.80;99.90
40828;DHT22;26549;50.918;5.338;2023-02-16T18:13:30;11.80;99.90
40828;DHT22;26549;50.918;5.338;2023-02-16T18:15:58;11.80;99.90
40828;DHT22;26549;50.918;5.338;2023-02-16T18:18:25;11.80;99.90
40828;DHT22;26549;50.918;5.338;2023-02-16T18:20:51;11.80;99.90
40828;DHT22;26549;50.918;5.338;2023-02-16T18:23:20;11.70;99.90
40828;DHT22;26549;50.918;5.338;2023-02-16T18:25:47;11.70;99.90
40828;DHT22;26549;50.918;5.338;2023-02-16T18:28:19;11.80;99.90
40828;DHT22;26549;50.918;5.338;2023-02-16T18:30:47;11.70;99.90
40828;DHT22;26549;50.918;5.338;2023-02-16T18:33:15;11.70;99.90
40828;DHT22;26549;50.918;5.338;2023-02-16T18:35:41;11.60;99.90
40828;DHT22;26549;50.918;5.338;2023-02-16T18:38:07;11.70;99.90